sensor_id;sensor_type;location;lat;lon;timestamp;temperature;humidity
41533;DHT22;27262;-35.248;149.138;2022-07-29T00:02:04;20.10;55.00
41533;DHT22;27262;-35.248;149.138;2022-07-29T00:04:35;20.00;55.10
41533;DHT22;27262;-35.248;149.138;2022-07-29T00:07:06;20.00;55.30
41533;DHT22;27262;-35.248;149.138;2022-07-29T00:09:37;19.90;55.40
41533;DHT22;27262;-35.248;149.138;2022-07-29T00:12:21;19.90;55.50
41533;DHT22;27262;-35.248;149.138;2022-07-29T00:14:57;19.90;55.70
41533;DHT22;27262;-35.248;149.138;2022-07-29T00:17:28;19.90;55.90
41533;DHT22;27262;-35.248;149.138;2022-07-29T00:19:58;19.90;55.90
41533;DHT22;27262;-35.248;149.138;2022-07-29T00:22:28;19.90;56.00
41533;DHT22;27262;-35.248;149.138;2022-07-29T00:24:59;19.80;56.00
41533;DHT22;27262;-35.248;149.138;2022-07-29T00:27:29;19.80;56.00
41533;DHT22;27262;-35.248;149.138;2022-07-29T00:29:59;19.80;56.00
41533;DHT22;27262;-35.248;149.138;2022-07-29T00:32:30;19.80;56.10
41533;DHT22;27262;-35.248;149.138;2022-07-29T00:35:00;19.80;56.20
41533;DHT22;27262;-35.248;149.138;2022-07-29T00:37:48;19.80;56.30
41533;DHT22;27262;-35.248;149.138;2022-07-29T00:40:18;19.70;56.40
41533;DHT22;27262;-35.248;149.138;2022-07-29T00:42:52;19.70;56.40
41533;DHT22;27262;-35.248;149.138;2022-07-29T00:45:22;19.70;56.50
41533;DHT22;27262;-35.248;149.138;2022-07-29T00:47:53;19.70;56.60
41533;DHT22;27262;-35.248;149.138;2022-07-29T00:50:23;19.70;56.60
41533;DHT22;27262;-35.248;149.138;2022-07-29T00:52:53;19.70;56.70
41533;DHT22;27262;-35.248;149.138;2022-07-29T00:55:24;19.70;56.70
41533;DHT22;27262;-35.248;149.138;2022-07-29T00:57:55;19.70;56.70
41533;DHT22;27262;-35.248;149.138;2022-07-29T01:00:30;19.70;56.80
41533;DHT22;27262;-35.248;149.138;2022-07-29T01:03:01;19.70;56.90
41533;DHT22;27262;-35.248;149.138;2022-07-29T01:05:32;19.70;56.90
41533;DHT22;27262;-35.248;149.138;2022-07-29T01:08:24;19.70;56.90
41533;DHT22;27262;-35.248;149.138;2022-07-29T01:11:02;19.70;57.00
41533;DHT22;27262;-35.248;149.138;2022-07-29T01:13:33;19.70;57.00
41533;DHT22;27262;-35.248;149.138;2022-07-29T01:16:10;19.70;57.00
41533;DHT22;27262;-35.248;149.138;2022-07-29T01:18:44;19.70;57.10
41533;DHT22;27262;-35.248;149.138;2022-07-29T01:30:33;19.70;57.20
41533;DHT22;27262;-35.248;149.138;2022-07-29T01:33:10;19.70;57.20
41533;DHT22;27262;-35.248;149.138;2022-07-29T01:36:07;19.70;57.20
41533;DHT22;27262;-35.248;149.138;2022-07-29T01:38:42;19.70;57.20
41533;DHT22;27262;-35.248;149.138;2022-07-29T01:41:17;19.70;57.20
41533;DHT22;27262;-35.248;149.138;2022-07-29T01:43:59;19.70;57.20
41533;DHT22;27262;-35.248;149.138;2022-07-29T01:46:35;19.70;57.20
41533;DHT22;27262;-35.248;149.138;2022-07-29T01:49:31;19.70;57.90
41533;DHT22;27262;-35.248;149.138;2022-07-29T01:52:15;19.70;57.30
41533;DHT22;27262;-35.248;149.138;2022-07-29T01:54:53;19.70;57.30
41533;DHT22;27262;-35.248;149.138;2022-07-29T01:57:29;19.70;57.40
41533;DHT22;27262;-35.248;149.138;2022-07-29T02:00:03;19.70;57.50
41533;DHT22;27262;-35.248;149.138;2022-07-29T02:02:36;19.70;57.50
41533;DHT22;27262;-35.248;149.138;2022-07-29T02:05:10;19.70;57.60
41533;DHT22;27262;-35.248;149.138;2022-07-29T02:07:43;19.70;57.50
41533;DHT22;27262;-35.248;149.138;2022-07-29T02:10:15;19.70;57.60
41533;DHT22;27262;-35.248;149.138;2022-07-29T02:12:54;19.70;57.50
41533;DHT22;27262;-35.248;149.138;2022-07-29T02:15:28;19.70;57.40
41533;DHT22;27262;-35.248;149.138;2022-07-29T02:18:09;19.70;58.00
41533;DHT22;27262;-35.248;149.138;2022-07-29T02:20:42;19.70;57.30
41533;DHT22;27262;-35.248;149.138;2022-07-29T02:23:23;19.80;57.30
41533;DHT22;27262;-35.248;149.138;2022-07-29T02:25:56;19.80;57.30
41533;DHT22;27262;-35.248;149.138;2022-07-29T02:28:28;19.80;57.30
41533;DHT22;27262;-35.248;149.138;2022-07-29T02:31:02;19.80;57.20
41533;DHT22;27262;-35.248;149.138;2022-07-29T02:33:33;19.90;57.20
41533;DHT22;27262;-35.248;149.138;2022-07-29T02:36:04;19.80;57.10
41533;DHT22;27262;-35.248;149.138;2022-07-29T02:38:35;19.90;57.10
41533;DHT22;27262;-35.248;149.138;2022-07-29T02:41:26;19.90;57.10
41533;DHT22;27262;-35.248;149.138;2022-07-29T02:44:06;19.90;57.00
41533;DHT22;27262;-35.248;149.138;2022-07-29T02:47:06;19.90;57.00
41533;DHT22;27262;-35.248;149.138;2022-07-29T02:49:53;19.90;56.90
41533;DHT22;27262;-35.248;149.138;2022-07-29T02:57:46;19.90;56.80
41533;DHT22;27262;-35.248;149.138;2022-07-29T03:00:24;19.90;56.80
41533;DHT22;27262;-35.248;149.138;2022-07-29T03:02:59;19.90;56.80
41533;DHT22;27262;-35.248;149.138;2022-07-29T03:05:32;20.00;56.80
41533;DHT22;27262;-35.248;149.138;2022-07-29T03:08:07;20.00;56.70
41533;DHT22;27262;-35.248;149.138;2022-07-29T03:10:42;20.00;56.70
41533;DHT22;27262;-35.248;149.138;2022-07-29T03:13:13;20.00;56.60
41533;DHT22;27262;-35.248;149.138;2022-07-29T03:15:45;20.00;56.60
41533;DHT22;27262;-35.248;149.138;2022-07-29T03:18:16;20.00;56.60
41533;DHT22;27262;-35.248;149.138;2022-07-29T03:20:47;20.10;56.60
41533;DHT22;27262;-35.248;149.138;2022-07-29T03:23:22;20.00;56.50
41533;DHT22;27262;-35.248;149.138;2022-07-29T03:25:53;20.00;56.50
41533;DHT22;27262;-35.248;149.138;2022-07-29T03:28:24;20.00;56.50
41533;DHT22;27262;-35.248;149.138;2022-07-29T03:30:56;20.10;56.50
41533;DHT22;27262;-35.248;149.138;2022-07-29T03:33:27;20.10;56.50
41533;DHT22;27262;-35.248;149.138;2022-07-29T03:35:58;20.10;56.50
41533;DHT22;27262;-35.248;149.138;2022-07-29T03:38:34;20.10;56.40
41533;DHT22;27262;-35.248;149.138;2022-07-29T03:41:10;20.10;56.40
41533;DHT22;27262;-35.248;149.138;2022-07-29T03:43:42;20.10;56.40
41533;DHT22;27262;-35.248;149.138;2022-07-29T03:46:17;20.10;56.40
41533;DHT22;27262;-35.248;149.138;2022-07-29T03:48:52;20.10;56.40
41533;DHT22;27262;-35.248;149.138;2022-07-29T03:51:26;20.10;56.40
41533;DHT22;27262;-35.248;149.138;2022-07-29T03:54:04;20.10;56.40
41533;DHT22;27262;-35.248;149.138;2022-07-29T03:56:46;20.20;56.40
41533;DHT22;27262;-35.248;149.138;2022-07-29T03:59:18;20.20;56.30
41533;DHT22;27262;-35.248;149.138;2022-07-29T04:01:50;20.20;56.40
41533;DHT22;27262;-35.248;149.138;2022-07-29T04:04:22;20.20;56.40
41533;DHT22;27262;-35.248;149.138;2022-07-29T04:06:54;20.20;56.30
41533;DHT22;27262;-35.248;149.138;2022-07-29T04:09:24;20.20;56.30
41533;DHT22;27262;-35.248;149.138;2022-07-29T04:11:54;20.20;56.30
41533;DHT22;27262;-35.248;149.138;2022-07-29T04:14:32;20.20;56.30
41533;DHT22;27262;-35.248;149.138;2022-07-29T04:17:03;20.20;56.30
41533;DHT22;27262;-35.248;149.138;2022-07-29T04:19:34;20.30;56.30
41533;DHT22;27262;-35.248;149.138;2022-07-29T04:22:04;20.20;56.20
41533;DHT22;27262;-35.248;149.138;2022-07-29T04:24:35;20.20;56.20
41533;DHT22;27262;-35.248;149.138;2022-07-29T04:27:11;20.30;56.30
41533;DHT22;27262;-35.248;149.138;2022-07-29T04:29:41;20.20;56.20
41533;DHT22;27262;-35.248;149.138;2022-07-29T04:32:25;20.20;56.20
41533;DHT22;27262;-35.248;149.138;2022-07-29T04:34:56;20.20;56.10
41533;DHT22;27262;-35.248;149.138;2022-07-29T04:37:26;20.30;56.20
41533;DHT22;27262;-35.248;149.138;2022-07-29T04:39:56;20.30;56.10
41533;DHT22;27262;-35.248;149.138;2022-07-29T04:42:26;20.30;56.10
41533;DHT22;27262;-35.248;149.138;2022-07-29T04:44:57;20.30;56.40
41533;DHT22;27262;-35.248;149.138;2022-07-29T04:47:28;20.30;56.00
41533;DHT22;27262;-35.248;149.138;2022-07-29T04:49:58;20.30;56.00
41533;DHT22;27262;-35.248;149.138;2022-07-29T04:52:29;20.30;56.00
41533;DHT22;27262;-35.248;149.138;2022-07-29T04:54:59;20.30;56.00
41533;DHT22;27262;-35.248;149.138;2022-07-29T04:57:30;20.30;56.00
41533;DHT22;27262;-35.248;149.138;2022-07-29T05:00:01;20.30;56.00
41533;DHT22;27262;-35.248;149.138;2022-07-29T05:02:31;20.30;56.00
41533;DHT22;27262;-35.248;149.138;2022-07-29T05:05:02;20.30;55.90
41533;DHT22;27262;-35.248;149.138;2022-07-29T05:07:33;20.30;55.90
41533;DHT22;27262;-35.248;149.138;2022-07-29T05:10:04;20.30;56.00
41533;DHT22;27262;-35.248;149.138;2022-07-29T05:12:34;20.30;56.00
41533;DHT22;27262;-35.248;149.138;2022-07-29T05:15:05;20.30;56.00
41533;DHT22;27262;-35.248;149.138;2022-07-29T05:17:36;20.30;56.00
41533;DHT22;27262;-35.248;149.138;2022-07-29T05:20:07;20.30;56.00
41533;DHT22;27262;-35.248;149.138;2022-07-29T05:22:37;20.30;56.00
41533;DHT22;27262;-35.248;149.138;2022-07-29T05:25:08;20.30;56.00
41533;DHT22;27262;-35.248;149.138;2022-07-29T05:27:39;20.30;56.00
41533;DHT22;27262;-35.248;149.138;2022-07-29T05:30:09;20.30;56.10
41533;DHT22;27262;-35.248;149.138;2022-07-29T05:32:40;20.30;56.10
41533;DHT22;27262;-35.248;149.138;2022-07-29T05:35:10;20.30;56.10
41533;DHT22;27262;-35.248;149.138;2022-07-29T05:37:41;20.30;56.10
41533;DHT22;27262;-35.248;149.138;2022-07-29T05:40:11;20.30;56.20
41533;DHT22;27262;-35.248;149.138;2022-07-29T05:42:42;20.30;56.30
41533;DHT22;27262;-35.248;149.138;2022-07-29T05:45:12;20.30;56.40
41533;DHT22;27262;-35.248;149.138;2022-07-29T05:47:43;20.30;56.40
41533;DHT22;27262;-35.248;149.138;2022-07-29T05:50:14;20.30;56.70
41533;DHT22;27262;-35.248;149.138;2022-07-29T05:52:45;20.40;56.90
41533;DHT22;27262;-35.248;149.138;2022-07-29T05:55:16;20.90;56.30
41533;DHT22;27262;-35.248;149.138;2022-07-29T05:57:46;21.40;55.20
41533;DHT22;27262;-35.248;149.138;2022-07-29T06:00:17;21.80;54.60
41533;DHT22;27262;-35.248;149.138;2022-07-29T06:02:47;22.00;54.20
41533;DHT22;27262;-35.248;149.138;2022-07-29T06:05:17;22.10;54.00
41533;DHT22;27262;-35.248;149.138;2022-07-29T06:07:48;22.20;53.90
41533;DHT22;27262;-35.248;149.138;2022-07-29T06:10:18;22.20;53.70
41533;DHT22;27262;-35.248;149.138;2022-07-29T06:12:53;22.30;53.50
41533;DHT22;27262;-35.248;149.138;2022-07-29T06:15:24;22.50;53.30
41533;DHT22;27262;-35.248;149.138;2022-07-29T06:17:54;22.60;53.10
41533;DHT22;27262;-35.248;149.138;2022-07-29T06:20:32;22.70;53.00
41533;DHT22;27262;-35.248;149.138;2022-07-29T06:23:02;22.50;53.10
41533;DHT22;27262;-35.248;149.138;2022-07-29T06:25:33;22.70;53.20
41533;DHT22;27262;-35.248;149.138;2022-07-29T06:28:05;22.60;53.10
41533;DHT22;27262;-35.248;149.138;2022-07-29T06:30:36;22.70;53.10
41533;DHT22;27262;-35.248;149.138;2022-07-29T06:33:06;22.70;53.00
41533;DHT22;27262;-35.248;149.138;2022-07-29T06:35:37;22.70;53.20
41533;DHT22;27262;-35.248;149.138;2022-07-29T06:38:20;22.80;53.10
41533;DHT22;27262;-35.248;149.138;2022-07-29T06:40:59;22.70;53.20
41533;DHT22;27262;-35.248;149.138;2022-07-29T06:43:44;22.80;53.10
41533;DHT22;27262;-35.248;149.138;2022-07-29T06:46:22;22.70;53.10
41533;DHT22;27262;-35.248;149.138;2022-07-29T06:48:52;22.80;53.30
41533;DHT22;27262;-35.248;149.138;2022-07-29T06:51:23;22.80;53.50
41533;DHT22;27262;-35.248;149.138;2022-07-29T06:53:53;22.80;53.40
41533;DHT22;27262;-35.248;149.138;2022-07-29T06:56:34;22.80;53.40
41533;DHT22;27262;-35.248;149.138;2022-07-29T06:59:09;22.80;53.40
41533;DHT22;27262;-35.248;149.138;2022-07-29T07:01:41;22.90;53.30
41533;DHT22;27262;-35.248;149.138;2022-07-29T07:04:12;22.80;53.40
41533;DHT22;27262;-35.248;149.138;2022-07-29T07:06:43;22.80;53.60
41533;DHT22;27262;-35.248;149.138;2022-07-29T07:09:14;22.70;53.70
41533;DHT22;27262;-35.248;149.138;2022-07-29T07:11:44;22.60;53.80
41533;DHT22;27262;-35.248;149.138;2022-07-29T07:14:17;22.40;54.00
41533;DHT22;27262;-35.248;149.138;2022-07-29T07:16:48;22.30;54.10
41533;DHT22;27262;-35.248;149.138;2022-07-29T07:19:21;22.20;54.10
41533;DHT22;27262;-35.248;149.138;2022-07-29T07:21:52;22.20;54.60
41533;DHT22;27262;-35.248;149.138;2022-07-29T07:24:22;22.10;54.50
41533;DHT22;27262;-35.248;149.138;2022-07-29T07:26:53;22.00;54.60
41533;DHT22;27262;-35.248;149.138;2022-07-29T07:29:23;22.00;54.80
41533;DHT22;27262;-35.248;149.138;2022-07-29T07:31:54;21.90;54.70
41533;DHT22;27262;-35.248;149.138;2022-07-29T07:34:28;21.90;55.00
41533;DHT22;27262;-35.248;149.138;2022-07-29T07:36:59;21.80;55.00
41533;DHT22;27262;-35.248;149.138;2022-07-29T07:39:29;21.80;55.00
41533;DHT22;27262;-35.248;149.138;2022-07-29T07:42:00;21.70;55.20
41533;DHT22;27262;-35.248;149.138;2022-07-29T07:44:30;21.70;55.20
41533;DHT22;27262;-35.248;149.138;2022-07-29T07:47:21;21.60;55.30
41533;DHT22;27262;-35.248;149.138;2022-07-29T07:49:55;21.60;55.40
41533;DHT22;27262;-35.248;149.138;2022-07-29T07:52:25;21.60;55.40
41533;DHT22;27262;-35.248;149.138;2022-07-29T07:54:56;21.50;55.50
41533;DHT22;27262;-35.248;149.138;2022-07-29T07:57:26;21.50;55.50
41533;DHT22;27262;-35.248;149.138;2022-07-29T07:59:56;21.40;55.40
41533;DHT22;27262;-35.248;149.138;2022-07-29T08:02:27;21.40;55.60
41533;DHT22;27262;-35.248;149.138;2022-07-29T08:04:57;21.40;55.60
41533;DHT22;27262;-35.248;149.138;2022-07-29T08:07:29;21.30;55.60
41533;DHT22;27262;-35.248;149.138;2022-07-29T08:09:59;21.30;55.60
41533;DHT22;27262;-35.248;149.138;2022-07-29T08:12:30;21.30;55.70
41533;DHT22;27262;-35.248;149.138;2022-07-29T08:15:00;21.20;55.70
41533;DHT22;27262;-35.248;149.138;2022-07-29T08:17:30;21.20;55.70
41533;DHT22;27262;-35.248;149.138;2022-07-29T08:20:02;21.20;55.70
41533;DHT22;27262;-35.248;149.138;2022-07-29T08:22:33;21.10;55.70
41533;DHT22;27262;-35.248;149.138;2022-07-29T08:25:04;21.10;55.70
41533;DHT22;27262;-35.248;149.138;2022-07-29T08:27:35;21.10;55.70
41533;DHT22;27262;-35.248;149.138;2022-07-29T08:30:10;21.10;55.80
41533;DHT22;27262;-35.248;149.138;2022-07-29T08:32:41;21.10;55.70
41533;DHT22;27262;-35.248;149.138;2022-07-29T08:35:22;21.00;55.80
41533;DHT22;27262;-35.248;149.138;2022-07-29T08:37:53;21.00;55.80
41533;DHT22;27262;-35.248;149.138;2022-07-29T08:40:23;21.00;55.80
41533;DHT22;27262;-35.248;149.138;2022-07-29T08:43:06;21.00;55.80
41533;DHT22;27262;-35.248;149.138;2022-07-29T08:45:43;20.90;55.80
41533;DHT22;27262;-35.248;149.138;2022-07-29T08:48:20;20.90;55.70
41533;DHT22;27262;-35.248;149.138;2022-07-29T08:50:56;20.90;55.80
41533;DHT22;27262;-35.248;149.138;2022-07-29T08:53:27;20.90;55.70
41533;DHT22;27262;-35.248;149.138;2022-07-29T08:55:58;20.90;55.80
41533;DHT22;27262;-35.248;149.138;2022-07-29T08:58:33;20.80;55.80
41533;DHT22;27262;-35.248;149.138;2022-07-29T09:01:05;20.80;55.70
41533;DHT22;27262;-35.248;149.138;2022-07-29T09:03:40;20.80;55.70
41533;DHT22;27262;-35.248;149.138;2022-07-29T09:06:14;20.80;55.80
41533;DHT22;27262;-35.248;149.138;2022-07-29T09:08:48;20.80;55.70
41533;DHT22;27262;-35.248;149.138;2022-07-29T09:11:19;20.70;55.70
41533;DHT22;27262;-35.248;149.138;2022-07-29T09:13:49;20.70;55.70
41533;DHT22;27262;-35.248;149.138;2022-07-29T09:16:20;20.70;55.70
41533;DHT22;27262;-35.248;149.138;2022-07-29T09:19:32;20.70;55.70
41533;DHT22;27262;-35.248;149.138;2022-07-29T09:22:12;20.70;55.60
41533;DHT22;27262;-35.248;149.138;2022-07-29T09:24:58;20.60;55.70
41533;DHT22;27262;-35.248;149.138;2022-07-29T09:27:28;20.60;55.70
41533;DHT22;27262;-35.248;149.138;2022-07-29T09:30:08;20.60;55.70
41533;DHT22;27262;-35.248;149.138;2022-07-29T09:32:57;20.60;55.60
41533;DHT22;27262;-35.248;149.138;2022-07-29T09:35:29;20.60;55.60
41533;DHT22;27262;-35.248;149.138;2022-07-29T09:38:10;20.50;55.60
41533;DHT22;27262;-35.248;149.138;2022-07-29T09:40:41;20.60;55.60
41533;DHT22;27262;-35.248;149.138;2022-07-29T09:43:32;20.50;55.60
41533;DHT22;27262;-35.248;149.138;2022-07-29T09:46:15;20.50;55.70
41533;DHT22;27262;-35.248;149.138;2022-07-29T09:48:45;20.40;55.40
41533;DHT22;27262;-35.248;149.138;2022-07-29T09:51:36;20.40;55.60
41533;DHT22;27262;-35.248;149.138;2022-07-29T09:54:26;20.40;55.70
41533;DHT22;27262;-35.248;149.138;2022-07-29T09:56:57;20.40;55.50
41533;DHT22;27262;-35.248;149.138;2022-07-29T09:59:27;20.30;55.60
41533;DHT22;27262;-35.248;149.138;2022-07-29T10:01:58;20.30;55.70
41533;DHT22;27262;-35.248;149.138;2022-07-29T10:04:42;20.30;55.70
41533;DHT22;27262;-35.248;149.138;2022-07-29T10:07:12;20.30;55.60
41533;DHT22;27262;-35.248;149.138;2022-07-29T10:09:53;20.20;55.70
41533;DHT22;27262;-35.248;149.138;2022-07-29T10:12:24;20.30;55.70
41533;DHT22;27262;-35.248;149.138;2022-07-29T10:14:55;20.20;55.80
41533;DHT22;27262;-35.248;149.138;2022-07-29T10:17:26;20.20;55.90
41533;DHT22;27262;-35.248;149.138;2022-07-29T10:19:56;20.20;55.80
41533;DHT22;27262;-35.248;149.138;2022-07-29T10:22:27;20.10;55.60
41533;DHT22;27262;-35.248;149.138;2022-07-29T10:25:19;20.10;55.90
41533;DHT22;27262;-35.248;149.138;2022-07-29T10:27:50;20.10;55.80
41533;DHT22;27262;-35.248;149.138;2022-07-29T10:30:25;20.10;55.70
41533;DHT22;27262;-35.248;149.138;2022-07-29T10:33:09;20.00;55.80
41533;DHT22;27262;-35.248;149.138;2022-07-29T10:36:17;20.00;55.70
41533;DHT22;27262;-35.248;149.138;2022-07-29T10:45:07;20.00;55.90
41533;DHT22;27262;-35.248;149.138;2022-07-29T10:47:39;19.90;56.00
41533;DHT22;27262;-35.248;149.138;2022-07-29T10:50:09;19.90;56.10
41533;DHT22;27262;-35.248;149.138;2022-07-29T10:52:56;19.90;56.10
41533;DHT22;27262;-35.248;149.138;2022-07-29T10:55:38;19.90;56.00
41533;DHT22;27262;-35.248;149.138;2022-07-29T10:58:19;19.80;56.10
41533;DHT22;27262;-35.248;149.138;2022-07-29T11:00:53;19.80;56.10
41533;DHT22;27262;-35.248;149.138;2022-07-29T11:03:47;19.80;56.20
41533;DHT22;27262;-35.248;149.138;2022-07-29T11:06:24;19.80;56.20
41533;DHT22;27262;-35.248;149.138;2022-07-29T11:09:31;19.70;56.30
41533;DHT22;27262;-35.248;149.138;2022-07-29T11:15:13;19.70;56.20
41533;DHT22;27262;-35.248;149.138;2022-07-29T11:20:40;19.70;56.10
41533;DHT22;27262;-35.248;149.138;2022-07-29T11:23:30;19.70;56.10
41533;DHT22;27262;-35.248;149.138;2022-07-29T11:28:59;19.70;56.10
41533;DHT22;27262;-35.248;149.138;2022-07-29T11:31:36;19.70;56.00
41533;DHT22;27262;-35.248;149.138;2022-07-29T11:45:22;19.70;56.00
41533;DHT22;27262;-35.248;149.138;2022-07-29T11:48:20;19.70;56.00
41533;DHT22;27262;-35.248;149.138;2022-07-29T11:50:57;19.70;56.00
41533;DHT22;27262;-35.248;149.138;2022-07-29T11:53:28;19.70;56.00
41533;DHT22;27262;-35.248;149.138;2022-07-29T11:56:00;19.70;56.00
41533;DHT22;27262;-35.248;149.138;2022-07-29T11:58:31;19.70;55.90
41533;DHT22;27262;-35.248;149.138;2022-07-29T12:01:04;19.70;56.00
41533;DHT22;27262;-35.248;149.138;2022-07-29T12:03:35;19.70;56.60
41533;DHT22;27262;-35.248;149.138;2022-07-29T12:06:13;19.70;55.90
41533;DHT22;27262;-35.248;149.138;2022-07-29T12:08:47;19.70;55.80
41533;DHT22;27262;-35.248;149.138;2022-07-29T12:11:19;19.70;55.90
41533;DHT22;27262;-35.248;149.138;2022-07-29T12:13:51;19.70;55.80
41533;DHT22;27262;-35.248;149.138;2022-07-29T12:16:22;19.70;55.80
41533;DHT22;27262;-35.248;149.138;2022-07-29T12:18:58;19.70;55.80
41533;DHT22;27262;-35.248;149.138;2022-07-29T12:21:46;19.70;55.90
41533;DHT22;27262;-35.248;149.138;2022-07-29T12:24:23;19.60;55.90
41533;DHT22;27262;-35.248;149.138;2022-07-29T12:26:58;19.60;56.10
41533;DHT22;27262;-35.248;149.138;2022-07-29T12:29:29;19.60;56.60
41533;DHT22;27262;-35.248;149.138;2022-07-29T12:32:03;19.50;56.80
41533;DHT22;27262;-35.248;149.138;2022-07-29T12:34:46;19.50;57.00
41533;DHT22;27262;-35.248;149.138;2022-07-29T12:37:17;19.50;57.20
41533;DHT22;27262;-35.248;149.138;2022-07-29T12:40:09;19.40;57.30
41533;DHT22;27262;-35.248;149.138;2022-07-29T12:42:40;19.50;57.50
41533;DHT22;27262;-35.248;149.138;2022-07-29T12:45:10;19.40;57.50
41533;DHT22;27262;-35.248;149.138;2022-07-29T12:47:53;19.40;57.50
41533;DHT22;27262;-35.248;149.138;2022-07-29T12:50:24;19.40;57.50
41533;DHT22;27262;-35.248;149.138;2022-07-29T12:52:54;19.40;57.50
41533;DHT22;27262;-35.248;149.138;2022-07-29T12:55:47;19.30;57.50
41533;DHT22;27262;-35.248;149.138;2022-07-29T12:58:42;19.30;57.50
41533;DHT22;27262;-35.248;149.138;2022-07-29T13:01:19;19.30;57.80
41533;DHT22;27262;-35.248;149.138;2022-07-29T13:03:58;19.20;57.60
41533;DHT22;27262;-35.248;149.138;2022-07-29T13:06:44;19.20;57.50
41533;DHT22;27262;-35.248;149.138;2022-07-29T13:09:19;19.20;57.50
41533;DHT22;27262;-35.248;149.138;2022-07-29T13:11:53;19.20;57.50
41533;DHT22;27262;-35.248;149.138;2022-07-29T13:14:32;19.10;57.70
41533;DHT22;27262;-35.248;149.138;2022-07-29T13:17:07;19.10;57.40
41533;DHT22;27262;-35.248;149.138;2022-07-29T13:19:42;19.10;57.60
41533;DHT22;27262;-35.248;149.138;2022-07-29T13:22:21;19.10;57.50
41533;DHT22;27262;-35.248;149.138;2022-07-29T13:24:55;19.00;57.40
41533;DHT22;27262;-35.248;149.138;2022-07-29T13:27:28;19.00;57.50
41533;DHT22;27262;-35.248;149.138;2022-07-29T13:30:00;19.00;57.40
41533;DHT22;27262;-35.248;149.138;2022-07-29T13:32:31;19.00;57.60
41533;DHT22;27262;-35.248;149.138;2022-07-29T13:35:07;19.00;57.60
41533;DHT22;27262;-35.248;149.138;2022-07-29T13:37:38;18.90;57.40
41533;DHT22;27262;-35.248;149.138;2022-07-29T13:40:09;18.90;57.50
41533;DHT22;27262;-35.248;149.138;2022-07-29T13:42:40;18.90;57.30
41533;DHT22;27262;-35.248;149.138;2022-07-29T13:45:11;18.80;57.30
41533;DHT22;27262;-35.248;149.138;2022-07-29T13:47:41;18.80;57.30
41533;DHT22;27262;-35.248;149.138;2022-07-29T13:50:16;18.80;57.30
41533;DHT22;27262;-35.248;149.138;2022-07-29T13:52:46;18.80;57.30
41533;DHT22;27262;-35.248;149.138;2022-07-29T13:55:18;18.70;57.20
41533;DHT22;27262;-35.248;149.138;2022-07-29T13:57:48;18.70;57.20
41533;DHT22;27262;-35.248;149.138;2022-07-29T14:00:19;18.70;57.20
41533;DHT22;27262;-35.248;149.138;2022-07-29T14:02:50;18.70;57.20
41533;DHT22;27262;-35.248;149.138;2022-07-29T14:05:20;18.60;57.10
41533;DHT22;27262;-35.248;149.138;2022-07-29T14:07:51;18.60;57.10
41533;DHT22;27262;-35.248;149.138;2022-07-29T14:10:21;18.60;57.00
41533;DHT22;27262;-35.248;149.138;2022-07-29T14:12:51;18.60;56.90
41533;DHT22;27262;-35.248;149.138;2022-07-29T14:15:22;18.50;56.90
41533;DHT22;27262;-35.248;149.138;2022-07-29T14:17:52;18.50;56.80
41533;DHT22;27262;-35.248;149.138;2022-07-29T14:20:23;18.50;56.80
41533;DHT22;27262;-35.248;149.138;2022-07-29T14:22:53;18.50;56.90
41533;DHT22;27262;-35.248;149.138;2022-07-29T14:25:24;18.40;56.80
41533;DHT22;27262;-35.248;149.138;2022-07-29T14:27:54;18.40;57.40
41533;DHT22;27262;-35.248;149.138;2022-07-29T14:30:25;18.40;56.70
41533;DHT22;27262;-35.248;149.138;2022-07-29T14:32:55;18.40;56.70
41533;DHT22;27262;-35.248;149.138;2022-07-29T14:35:25;18.40;56.80
41533;DHT22;27262;-35.248;149.138;2022-07-29T14:37:56;18.30;56.80
41533;DHT22;27262;-35.248;149.138;2022-07-29T14:40:26;18.30;56.80
41533;DHT22;27262;-35.248;149.138;2022-07-29T14:42:56;18.30;56.80
41533;DHT22;27262;-35.248;149.138;2022-07-29T14:45:27;18.20;56.80
41533;DHT22;27262;-35.248;149.138;2022-07-29T14:47:57;18.20;56.90
41533;DHT22;27262;-35.248;149.138;2022-07-29T14:50:29;18.20;56.80
41533;DHT22;27262;-35.248;149.138;2022-07-29T14:53:00;18.20;56.80
41533;DHT22;27262;-35.248;149.138;2022-07-29T14:55:31;18.20;56.90
41533;DHT22;27262;-35.248;149.138;2022-07-29T14:58:01;18.10;56.90
41533;DHT22;27262;-35.248;149.138;2022-07-29T15:00:38;18.10;56.80
41533;DHT22;27262;-35.248;149.138;2022-07-29T15:03:09;18.10;56.90
41533;DHT22;27262;-35.248;149.138;2022-07-29T15:05:50;18.00;56.90
41533;DHT22;27262;-35.248;149.138;2022-07-29T15:08:21;18.00;56.80
41533;DHT22;27262;-35.248;149.138;2022-07-29T15:10:52;18.00;56.90
41533;DHT22;27262;-35.248;149.138;2022-07-29T15:13:22;18.00;56.90
41533;DHT22;27262;-35.248;149.138;2022-07-29T15:15:52;17.90;56.80
41533;DHT22;27262;-35.248;149.138;2022-07-29T15:18:27;17.90;56.80
41533;DHT22;27262;-35.248;149.138;2022-07-29T15:20:57;17.90;56.90
41533;DHT22;27262;-35.248;149.138;2022-07-29T15:23:27;17.90;56.90
41533;DHT22;27262;-35.248;149.138;2022-07-29T15:25:57;17.80;56.90
41533;DHT22;27262;-35.248;149.138;2022-07-29T15:28:28;17.90;57.00
41533;DHT22;27262;-35.248;149.138;2022-07-29T15:30:58;17.80;56.90
41533;DHT22;27262;-35.248;149.138;2022-07-29T15:33:29;17.80;56.90
41533;DHT22;27262;-35.248;149.138;2022-07-29T15:35:59;17.80;57.00
41533;DHT22;27262;-35.248;149.138;2022-07-29T15:38:30;17.70;57.00
41533;DHT22;27262;-35.248;149.138;2022-07-29T15:41:15;17.70;56.90
41533;DHT22;27262;-35.248;149.138;2022-07-29T15:43:46;17.70;57.00
41533;DHT22;27262;-35.248;149.138;2022-07-29T15:46:18;17.70;57.00
41533;DHT22;27262;-35.248;149.138;2022-07-29T15:49:07;17.70;57.10
41533;DHT22;27262;-35.248;149.138;2022-07-29T15:51:38;17.60;57.00
41533;DHT22;27262;-35.248;149.138;2022-07-29T15:54:08;17.60;57.00
41533;DHT22;27262;-35.248;149.138;2022-07-29T15:56:38;17.60;57.10
41533;DHT22;27262;-35.248;149.138;2022-07-29T15:59:08;17.60;57.10
41533;DHT22;27262;-35.248;149.138;2022-07-29T16:01:49;17.60;57.10
41533;DHT22;27262;-35.248;149.138;2022-07-29T16:04:19;17.50;57.10
41533;DHT22;27262;-35.248;149.138;2022-07-29T16:06:50;17.50;57.10
41533;DHT22;27262;-35.248;149.138;2022-07-29T16:09:21;17.50;57.10
41533;DHT22;27262;-35.248;149.138;2022-07-29T16:11:51;17.50;57.10